Terminal Aerodrome Forecast
Issued by NWS

Home | Current Version | Previous Version | Text Only | Print | Product List | Glossary On
Versions: 1 2 3 4 5 6 7 8 9 10 11 12 13 14 15 16 17 18 19 20 21 22
138
FTUS43 KDVN 302320
TAFBRL
TAF
KBRL 302320Z 3100/3124 19006KT P6SM VCSH SCT060
     FM310200 17004KT P6SM SCT120
     FM310900 16003KT 5SM BR SCT080
     FM311400 19008KT P6SM BKN120=

USA.gov is the U.S. government's official web portal to all federal, state and local government web resources and services.